createdAt,value
2022-08-16T00:00:56.783Z,99.06
2022-08-16T00:03:23.780Z,98.61
2022-08-16T00:05:57.582Z,99.14
2022-08-16T00:08:35.963Z,99.21
2022-08-16T00:11:15.465Z,99.03
2022-08-16T00:13:53.713Z,98.95
2022-08-16T00:17:01.177Z,99.56
2022-08-16T00:19:09.862Z,99.21
2022-08-16T00:21:41.182Z,98.17
2022-08-16T00:24:11.477Z,97.83
2022-08-16T00:26:45.205Z,97.61
2022-08-16T00:29:16.268Z,97.10
2022-08-16T00:31:59.318Z,98.11
2022-08-16T00:34:43.896Z,97.70
2022-08-16T00:37:16.697Z,98.49
2022-08-16T00:39:44.751Z,99.00
2022-08-16T00:42:11.346Z,98.62
2022-08-16T00:44:39.613Z,98.17
2022-08-16T00:47:10.585Z,99.32
2022-08-16T00:49:39.567Z,98.49
2022-08-16T00:52:29.462Z,99.00
2022-08-16T00:54:56.943Z,98.06
2022-08-16T00:57:23.962Z,97.99
2022-08-16T00:59:52.907Z,97.87
2022-08-16T01:02:31.406Z,97.93
2022-08-16T01:05:09.159Z,97.80
2022-08-16T01:07:51.165Z,97.88
2022-08-16T01:10:21.715Z,97.90
2022-08-16T01:13:01.019Z,98.44
2022-08-16T01:15:27.841Z,98.47
2022-08-16T01:17:57.353Z,97.11
2022-08-16T01:20:30.424Z,97.49
2022-08-16T01:23:58.456Z,97.50
2022-08-16T01:26:34.098Z,97.65
2022-08-16T01:29:09.798Z,96.04
2022-08-16T01:31:37.601Z,96.44
2022-08-16T01:34:09.807Z,97.29
2022-08-16T01:37:01.385Z,97.32
2022-08-16T01:39:29.240Z,96.72
2022-08-16T01:41:55.935Z,97.83
2022-08-16T01:44:22.428Z,97.70
2022-08-16T01:46:49.350Z,97.98
2022-08-16T01:49:43.035Z,97.97
2022-08-16T01:52:29.302Z,98.49
2022-08-16T01:54:57.205Z,98.91
2022-08-16T01:57:24.753Z,99.10
2022-08-16T01:59:54.676Z,95.58
2022-08-16T02:02:27.530Z,95.06
2022-08-16T02:04:55.638Z,94.92
2022-08-16T02:07:23.481Z,93.82
2022-08-16T02:09:57.015Z,94.05
2022-08-16T02:12:50.006Z,94.10
2022-08-16T02:15:14.957Z,94.88
2022-08-16T02:17:42.540Z,94.83
2022-08-16T02:20:11.828Z,95.88
2022-08-16T02:22:38.888Z,95.78
2022-08-16T02:25:10.365Z,95.29
2022-08-16T02:27:38.944Z,95.62
2022-08-16T02:30:37.590Z,95.32
2022-08-16T02:33:03.124Z,95.27
2022-08-16T02:35:29.992Z,95.19
2022-08-16T02:37:56.507Z,94.90
2022-08-16T02:40:28.632Z,94.50
2022-08-16T02:42:55.990Z,94.92
2022-08-16T02:45:27.883Z,95.37
2022-08-16T02:48:01.367Z,94.92
2022-08-16T02:50:55.094Z,94.63
2022-08-16T02:53:29.242Z,94.26
2022-08-16T02:55:56.476Z,94.48
2022-08-16T02:58:24.958Z,94.52
2022-08-16T03:00:56.019Z,94.16
2022-08-16T03:03:23.105Z,93.80
2022-08-16T03:05:52.421Z,93.41
2022-08-16T03:08:50.110Z,94.14
2022-08-16T03:11:16.886Z,94.01
2022-08-16T03:13:51.142Z,93.69
2022-08-16T03:16:37.923Z,93.82
2022-08-16T03:19:05.253Z,94.83
2022-08-16T03:21:37.363Z,94.36
2022-08-16T03:24:05.993Z,93.46
2022-08-16T03:26:52.500Z,93.82
2022-08-16T03:29:19.061Z,93.74
2022-08-16T03:31:45.575Z,93.85
2022-08-16T03:34:19.249Z,94.53
2022-08-16T03:36:47.562Z,94.58
2022-08-16T03:39:15.197Z,94.71
2022-08-16T03:41:50.323Z,95.26
2022-08-16T03:44:43.465Z,95.41
2022-08-16T03:47:03.989Z,95.81
2022-08-16T03:49:36.671Z,95.12
2022-08-16T03:52:04.482Z,95.05
2022-08-16T03:54:31.013Z,95.35
2022-08-16T03:56:58.875Z,94.83
2022-08-16T03:59:29.535Z,95.24
2022-08-16T04:01:56.906Z,94.74
2022-08-16T04:04:32.502Z,94.25
2022-08-16T04:06:59.450Z,94.04
2022-08-16T04:09:26.009Z,93.67
2022-08-16T04:11:52.924Z,92.91
2022-08-16T04:14:32.951Z,93.34
2022-08-16T04:17:00.963Z,94.05
2022-08-16T04:19:31.908Z,93.65
2022-08-16T04:21:58.597Z,94.45
2022-08-16T04:24:28.852Z,94.02
2022-08-16T04:26:55.617Z,93.81
2022-08-16T04:29:24.931Z,93.71
2022-08-16T04:31:56.166Z,93.33
2022-08-16T04:34:26.664Z,93.08
2022-08-16T04:36:53.723Z,93.22
2022-08-16T04:39:23.929Z,94.14
2022-08-16T04:41:56.965Z,93.38
2022-08-16T04:44:32.675Z,93.19
2022-08-16T04:47:23.915Z,93.70
2022-08-16T04:49:52.395Z,93.69
2022-08-16T04:52:33.174Z,94.06
2022-08-16T04:55:11.757Z,94.52
2022-08-16T04:57:39.535Z,95.46
2022-08-16T05:00:30.284Z,94.70
2022-08-16T05:03:02.650Z,94.95
2022-08-16T05:05:44.775Z,94.36
2022-08-16T05:08:29.353Z,95.07
2022-08-16T05:11:05.229Z,95.27
2022-08-16T05:13:40.557Z,95.25
2022-08-16T05:16:30.086Z,96.26
2022-08-16T05:18:58.350Z,96.53
2022-08-16T05:21:26.984Z,96.53
2022-08-16T05:23:55.781Z,96.15
2022-08-16T05:26:27.840Z,96.08
2022-08-16T05:28:56.047Z,96.00
2022-08-16T05:31:23.519Z,96.29
2022-08-16T05:33:53.438Z,96.43
2022-08-16T05:36:21.398Z,96.77
2022-08-16T05:38:48.910Z,95.84
2022-08-16T05:41:16.849Z,95.78
2022-08-16T05:43:46.909Z,96.46
2022-08-16T05:46:29.952Z,96.37
2022-08-16T05:49:03.602Z,96.24
2022-08-16T05:51:38.145Z,96.23
2022-08-16T05:54:06.678Z,96.10
2022-08-16T05:56:36.670Z,97.02
2022-08-16T05:59:06.303Z,96.27
2022-08-16T06:01:38.171Z,96.65
2022-08-16T06:04:13.549Z,96.88
2022-08-16T06:06:56.575Z,97.93
2022-08-16T06:09:24.479Z,97.46
2022-08-16T06:11:51.788Z,97.16
2022-08-16T06:14:18.923Z,96.82
2022-08-16T06:16:50.946Z,96.77
2022-08-16T06:19:17.950Z,97.40
2022-08-16T06:21:44.747Z,97.58
